createdAt,value
2022-10-30T00:10:21.289Z,11.01
2022-10-30T00:22:21.282Z,11.01
2022-10-30T00:34:21.311Z,11.01
2022-10-30T00:46:21.197Z,11.00
2022-10-30T00:58:21.186Z,10.99
2022-10-30T01:10:21.297Z,10.99
2022-10-30T01:22:21.290Z,10.98
2022-10-30T01:34:22.266Z,10.98
2022-10-30T01:46:21.186Z,10.97
2022-10-30T01:58:21.311Z,10.97
2022-10-30T02:10:21.287Z,10.96
2022-10-30T02:22:21.340Z,10.96
2022-10-30T02:34:21.209Z,10.95
2022-10-30T02:46:21.193Z,10.95
2022-10-30T02:58:21.300Z,10.94
2022-10-30T03:10:21.191Z,10.94
2022-10-30T03:22:21.288Z,10.94
2022-10-30T03:34:21.193Z,10.93
2022-10-30T03:46:21.183Z,10.92
2022-10-30T03:58:21.226Z,10.92
2022-10-30T04:10:23.836Z,10.91
2022-10-30T04:22:21.302Z,10.91
2022-10-30T04:34:21.252Z,10.91
2022-10-30T04:46:21.192Z,10.90
2022-10-30T04:58:21.300Z,10.90
2022-10-30T05:10:21.272Z,10.89
2022-10-30T05:22:21.240Z,10.90
2022-10-30T05:34:21.297Z,10.89
2022-10-30T05:46:21.182Z,10.88
2022-10-30T05:58:21.186Z,10.88
2022-10-30T06:10:21.199Z,10.88
2022-10-30T06:22:21.190Z,10.88
2022-10-30T06:34:21.197Z,10.86
2022-10-30T06:46:21.280Z,10.89
2022-10-30T06:58:21.194Z,10.91
2022-10-30T07:10:21.187Z,10.94
2022-10-30T07:22:21.194Z,10.92
2022-10-30T07:34:21.213Z,10.92
2022-10-30T07:46:21.323Z,10.93
2022-10-30T07:58:21.194Z,10.93
2022-10-30T08:10:21.279Z,10.93
2022-10-30T08:22:21.284Z,10.94
2022-10-30T08:34:21.193Z,11.12
2022-10-30T08:46:21.189Z,11.17
2022-10-30T08:58:21.194Z,11.27
2022-10-30T09:10:21.257Z,11.39
2022-10-30T09:22:21.219Z,11.52
2022-10-30T09:34:21.303Z,11.58
2022-10-30T09:46:21.191Z,11.75
2022-10-30T09:58:21.294Z,11.82
2022-10-30T10:10:21.450Z,11.95
2022-10-30T10:22:21.304Z,12.09
2022-10-30T10:34:21.195Z,12.18
2022-10-30T10:46:21.276Z,12.33
2022-10-30T10:58:21.301Z,12.43
2022-10-30T11:10:21.188Z,12.55
2022-10-30T11:22:21.194Z,12.60
2022-10-30T11:34:21.294Z,12.61
2022-10-30T11:46:21.304Z,12.62
2022-10-30T11:58:21.297Z,12.60
2022-10-30T12:10:21.185Z,12.59
2022-10-30T12:22:21.282Z,12.59
2022-10-30T12:34:21.267Z,12.60
2022-10-30T12:46:21.282Z,12.59
2022-10-30T12:58:21.277Z,12.58
2022-10-30T13:10:21.243Z,12.58
2022-10-30T13:22:21.310Z,12.58
2022-10-30T13:34:21.297Z,12.58
2022-10-30T13:46:21.305Z,12.57
2022-10-30T13:58:21.302Z,12.56
2022-10-30T14:10:21.201Z,12.56
2022-10-30T14:22:21.299Z,12.56
2022-10-30T14:34:21.283Z,12.55
2022-10-30T14:46:21.265Z,12.54
2022-10-30T14:58:21.187Z,12.53
2022-10-30T15:10:21.272Z,12.51
2022-10-30T15:22:21.186Z,12.51
2022-10-30T15:34:21.277Z,12.49
2022-10-30T15:46:21.286Z,12.48
2022-10-30T15:58:21.264Z,12.47
2022-10-30T16:10:21.286Z,12.45
2022-10-30T16:22:21.186Z,12.44
2022-10-30T16:34:21.252Z,12.43
2022-10-30T16:46:21.263Z,12.41
2022-10-30T16:58:21.221Z,12.40
2022-10-30T17:10:21.306Z,12.39
2022-10-30T17:22:21.184Z,12.36
2022-10-30T17:34:21.284Z,12.36
2022-10-30T17:46:21.182Z,12.35
2022-10-30T17:58:21.191Z,12.33
2022-10-30T18:10:21.274Z,12.33
2022-10-30T18:22:21.285Z,12.31
2022-10-30T18:34:21.195Z,12.29
2022-10-30T18:46:21.280Z,12.28
2022-10-30T18:58:21.247Z,12.27
2022-10-30T19:10:21.236Z,12.26
2022-10-30T19:22:21.313Z,12.25
2022-10-30T19:34:22.428Z,12.24
2022-10-30T19:46:21.400Z,12.22
2022-10-30T19:58:25.167Z,12.21
2022-10-30T20:10:21.316Z,12.21
2022-10-30T20:22:27.134Z,12.18
2022-10-30T20:34:21.239Z,12.18
2022-10-30T20:46:21.200Z,12.17
2022-10-30T20:58:21.313Z,12.15
2022-10-30T21:10:21.245Z,12.15
2022-10-30T21:22:21.188Z,12.13
2022-10-30T21:34:21.309Z,12.12
2022-10-30T21:46:21.187Z,12.10
2022-10-30T21:58:21.251Z,12.09
2022-10-30T22:10:21.293Z,12.09
2022-10-30T22:22:21.300Z,12.07
2022-10-30T22:34:21.200Z,12.06
2022-10-30T22:46:21.187Z,12.05
2022-10-30T22:58:21.187Z,12.03
2022-10-30T23:10:21.245Z,12.03
2022-10-30T23:22:21.275Z,12.02
2022-10-30T23:34:21.244Z,12.01
2022-10-30T23:46:21.185Z,11.99
2022-10-30T23:58:21.203Z,11.98
